sensor_id;sensor_type;location;lat;lon;timestamp;temperature;humidity
52267;DHT22;38223;50.940;4.034;2023-03-01T00:02:19;3.30;99.90
52267;DHT22;38223;50.940;4.034;2023-03-01T00:04:51;3.30;99.90
52267;DHT22;38223;50.940;4.034;2023-03-01T00:07:21;3.20;99.90
52267;DHT22;38223;50.940;4.034;2023-03-01T00:09:56;3.20;99.90
52267;DHT22;38223;50.940;4.034;2023-03-01T00:12:25;3.20;99.90
52267;DHT22;38223;50.940;4.034;2023-03-01T00:14:57;3.20;99.90
52267;DHT22;38223;50.940;4.034;2023-03-01T00:17:27;3.30;99.90
52267;DHT22;38223;50.940;4.034;2023-03-01T00:20:00;3.30;99.90
52267;DHT22;38223;50.940;4.034;2023-03-01T00:22:28;3.30;99.90
52267;DHT22;38223;50.940;4.034;2023-03-01T00:24:57;3.30;99.90
52267;DHT22;38223;50.940;4.034;2023-03-01T00:27:28;3.30;99.90
52267;DHT22;38223;50.940;4.034;2023-03-01T00:29:55;3.30;99.90
52267;DHT22;38223;50.940;4.034;2023-03-01T00:32:23;3.40;99.90
52267;DHT22;38223;50.940;4.034;2023-03-01T00:34:52;3.40;99.90
52267;DHT22;38223;50.940;4.034;2023-03-01T00:37:27;3.50;99.90
52267;DHT22;38223;50.940;4.034;2023-03-01T00:39:56;3.40;99.90
52267;DHT22;38223;50.940;4.034;2023-03-01T00:42:23;3.40;99.90
52267;DHT22;38223;50.940;4.034;2023-03-01T00:44:51;3.30;99.90
52267;DHT22;38223;50.940;4.034;2023-03-01T00:47:20;3.40;99.90
52267;DHT22;38223;50.940;4.034;2023-03-01T00:49:49;3.50;99.90
52267;DHT22;38223;50.940;4.034;2023-03-01T00:52:17;3.50;99.90
52267;DHT22;38223;50.940;4.034;2023-03-01T00:54:45;3.50;99.90
52267;DHT22;38223;50.940;4.034;2023-03-01T00:57:13;3.50;99.90
52267;DHT22;38223;50.940;4.034;2023-03-01T00:59:41;3.40;99.90
52267;DHT22;38223;50.940;4.034;2023-03-01T01:02:10;3.40;99.90
52267;DHT22;38223;50.940;4.034;2023-03-01T01:04:42;3.40;99.90
52267;DHT22;38223;50.940;4.034;2023-03-01T01:07:16;3.40;99.90
52267;DHT22;38223;50.940;4.034;2023-03-01T01:09:46;3.30;99.90
52267;DHT22;38223;50.940;4.034;2023-03-01T01:12:14;3.20;99.90
52267;DHT22;38223;50.940;4.034;2023-03-01T01:14:42;3.20;99.90
52267;DHT22;38223;50.940;4.034;2023-03-01T01:17:09;3.20;99.90
52267;DHT22;38223;50.940;4.034;2023-03-01T01:19:37;3.10;99.90
52267;DHT22;38223;50.940;4.034;2023-03-01T01:22:05;2.90;99.90
52267;DHT22;38223;50.940;4.034;2023-03-01T01:24:34;2.90;99.90
52267;DHT22;38223;50.940;4.034;2023-03-01T01:27:06;2.90;99.90
52267;DHT22;38223;50.940;4.034;2023-03-01T01:29:39;2.90;99.90
52267;DHT22;38223;50.940;4.034;2023-03-01T01:32:08;2.80;99.90
52267;DHT22;38223;50.940;4.034;2023-03-01T01:34:40;2.70;99.90
52267;DHT22;38223;50.940;4.034;2023-03-01T01:37:13;2.70;99.90
52267;DHT22;38223;50.940;4.034;2023-03-01T01:39:46;2.60;99.90
52267;DHT22;38223;50.940;4.034;2023-03-01T01:42:18;2.70;99.90
52267;DHT22;38223;50.940;4.034;2023-03-01T01:47:38;2.80;99.90
52267;DHT22;38223;50.940;4.034;2023-03-01T01:50:14;2.60;99.90
52267;DHT22;38223;50.940;4.034;2023-03-01T01:52:42;2.60;99.90
52267;DHT22;38223;50.940;4.034;2023-03-01T01:55:18;2.60;99.90
52267;DHT22;38223;50.940;4.034;2023-03-01T01:58:00;2.50;99.90
52267;DHT22;38223;50.940;4.034;2023-03-01T02:00:29;2.50;99.90
52267;DHT22;38223;50.940;4.034;2023-03-01T02:03:17;2.50;99.90
52267;DHT22;38223;50.940;4.034;2023-03-01T02:06:07;2.50;99.90
52267;DHT22;38223;50.940;4.034;2023-03-01T02:11:26;2.50;99.90
52267;DHT22;38223;50.940;4.034;2023-03-01T02:13:54;2.50;99.90
52267;DHT22;38223;50.940;4.034;2023-03-01T02:16:22;2.60;99.90
52267;DHT22;38223;50.940;4.034;2023-03-01T02:18:51;2.60;99.90
52267;DHT22;38223;50.940;4.034;2023-03-01T02:24:01;2.60;99.90
52267;DHT22;38223;50.940;4.034;2023-03-01T02:26:41;2.60;99.90
52267;DHT22;38223;50.940;4.034;2023-03-01T02:29:13;2.70;99.90
52267;DHT22;38223;50.940;4.034;2023-03-01T02:31:44;2.70;99.90
52267;DHT22;38223;50.940;4.034;2023-03-01T02:34:19;2.70;99.90
52267;DHT22;38223;50.940;4.034;2023-03-01T02:36:57;2.80;99.90
52267;DHT22;38223;50.940;4.034;2023-03-01T02:39:26;2.80;99.90
52267;DHT22;38223;50.940;4.034;2023-03-01T02:41:57;2.80;99.90
52267;DHT22;38223;50.940;4.034;2023-03-01T02:44:25;2.70;99.90
52267;DHT22;38223;50.940;4.034;2023-03-01T02:46:56;2.70;99.90
52267;DHT22;38223;50.940;4.034;2023-03-01T02:49:27;2.60;99.90
52267;DHT22;38223;50.940;4.034;2023-03-01T02:52:20;2.60;99.90
52267;DHT22;38223;50.940;4.034;2023-03-01T02:55:15;2.60;99.90
52267;DHT22;38223;50.940;4.034;2023-03-01T02:57:47;2.60;99.90
52267;DHT22;38223;50.940;4.034;2023-03-01T03:00:30;2.60;99.90
52267;DHT22;38223;50.940;4.034;2023-03-01T03:03:02;2.60;99.90
52267;DHT22;38223;50.940;4.034;2023-03-01T03:05:31;2.50;99.90
52267;DHT22;38223;50.940;4.034;2023-03-01T03:08:07;2.50;99.90
52267;DHT22;38223;50.940;4.034;2023-03-01T03:10:40;2.50;99.90
52267;DHT22;38223;50.940;4.034;2023-03-01T03:13:13;2.50;99.90
52267;DHT22;38223;50.940;4.034;2023-03-01T03:15:45;2.40;99.90
52267;DHT22;38223;50.940;4.034;2023-03-01T03:18:22;2.40;99.90
52267;DHT22;38223;50.940;4.034;2023-03-01T03:20:51;2.40;99.90
52267;DHT22;38223;50.940;4.034;2023-03-01T03:23:20;2.40;99.90
52267;DHT22;38223;50.940;4.034;2023-03-01T03:25:54;2.30;99.90
52267;DHT22;38223;50.940;4.034;2023-03-01T03:28:27;2.30;99.90
52267;DHT22;38223;50.940;4.034;2023-03-01T03:31:14;2.30;99.90
52267;DHT22;38223;50.940;4.034;2023-03-01T03:33:41;2.30;99.90
52267;DHT22;38223;50.940;4.034;2023-03-01T03:36:09;2.20;99.90
52267;DHT22;38223;50.940;4.034;2023-03-01T03:38:44;2.20;99.90
52267;DHT22;38223;50.940;4.034;2023-03-01T03:41:13;2.20;99.90
52267;DHT22;38223;50.940;4.034;2023-03-01T03:43:49;2.20;99.90
52267;DHT22;38223;50.940;4.034;2023-03-01T03:46:16;2.20;99.90
52267;DHT22;38223;50.940;4.034;2023-03-01T03:48:48;2.10;99.90
52267;DHT22;38223;50.940;4.034;2023-03-01T03:51:22;2.10;99.90
52267;DHT22;38223;50.940;4.034;2023-03-01T03:53:53;2.10;99.90
52267;DHT22;38223;50.940;4.034;2023-03-01T03:56:23;2.10;99.90
52267;DHT22;38223;50.940;4.034;2023-03-01T03:58:57;2.00;99.90
52267;DHT22;38223;50.940;4.034;2023-03-01T04:01:34;2.20;99.90
52267;DHT22;38223;50.940;4.034;2023-03-01T04:04:05;2.10;99.90
52267;DHT22;38223;50.940;4.034;2023-03-01T04:06:34;2.00;99.90
52267;DHT22;38223;50.940;4.034;2023-03-01T04:09:06;2.00;99.90
52267;DHT22;38223;50.940;4.034;2023-03-01T04:11:35;2.10;99.90
52267;DHT22;38223;50.940;4.034;2023-03-01T04:14:09;2.10;99.90
52267;DHT22;38223;50.940;4.034;2023-03-01T04:16:41;2.00;99.90
52267;DHT22;38223;50.940;4.034;2023-03-01T04:19:13;1.90;99.90
52267;DHT22;38223;50.940;4.034;2023-03-01T04:21:44;2.00;99.90
52267;DHT22;38223;50.940;4.034;2023-03-01T04:24:13;1.90;99.90
52267;DHT22;38223;50.940;4.034;2023-03-01T04:26:47;2.10;99.90
52267;DHT22;38223;50.940;4.034;2023-03-01T04:29:17;2.10;99.90
52267;DHT22;38223;50.940;4.034;2023-03-01T04:31:49;2.10;99.90
52267;DHT22;38223;50.940;4.034;2023-03-01T04:34:17;2.10;99.90
52267;DHT22;38223;50.940;4.034;2023-03-01T04:36:46;2.00;99.90
52267;DHT22;38223;50.940;4.034;2023-03-01T04:39:19;2.00;99.90
52267;DHT22;38223;50.940;4.034;2023-03-01T04:41:48;2.00;99.90
52267;DHT22;38223;50.940;4.034;2023-03-01T04:44:20;2.10;99.90
52267;DHT22;38223;50.940;4.034;2023-03-01T04:46:52;2.10;99.90
52267;DHT22;38223;50.940;4.034;2023-03-01T04:49:26;2.10;99.90
52267;DHT22;38223;50.940;4.034;2023-03-01T04:51:57;2.10;99.90
52267;DHT22;38223;50.940;4.034;2023-03-01T04:54:27;2.10;99.90
52267;DHT22;38223;50.940;4.034;2023-03-01T04:57:01;2.00;99.90
52267;DHT22;38223;50.940;4.034;2023-03-01T04:59:32;2.00;99.90
52267;DHT22;38223;50.940;4.034;2023-03-01T05:02:02;2.10;99.90
52267;DHT22;38223;50.940;4.034;2023-03-01T05:04:32;2.00;99.90
52267;DHT22;38223;50.940;4.034;2023-03-01T05:07:06;1.90;99.90
52267;DHT22;38223;50.940;4.034;2023-03-01T05:09:39;1.90;99.90
52267;DHT22;38223;50.940;4.034;2023-03-01T05:12:07;1.80;99.90
52267;DHT22;38223;50.940;4.034;2023-03-01T05:14:37;1.80;99.90
52267;DHT22;38223;50.940;4.034;2023-03-01T05:17:10;1.70;99.90
52267;DHT22;38223;50.940;4.034;2023-03-01T05:19:41;1.80;99.90
52267;DHT22;38223;50.940;4.034;2023-03-01T05:22:13;1.70;99.90
52267;DHT22;38223;50.940;4.034;2023-03-01T05:24:41;1.70;99.90
52267;DHT22;38223;50.940;4.034;2023-03-01T05:27:10;1.70;99.90
52267;DHT22;38223;50.940;4.034;2023-03-01T05:29:43;1.70;99.90
52267;DHT22;38223;50.940;4.034;2023-03-01T05:32:19;1.70;99.90
52267;DHT22;38223;50.940;4.034;2023-03-01T05:34:55;1.70;99.90
52267;DHT22;38223;50.940;4.034;2023-03-01T05:37:27;1.70;99.90
52267;DHT22;38223;50.940;4.034;2023-03-01T05:39:59;1.80;99.90
52267;DHT22;38223;50.940;4.034;2023-03-01T05:42:31;1.80;99.90
52267;DHT22;38223;50.940;4.034;2023-03-01T05:45:05;1.80;99.90
52267;DHT22;38223;50.940;4.034;2023-03-01T05:47:37;1.70;99.90
52267;DHT22;38223;50.940;4.034;2023-03-01T05:50:13;1.80;99.90
52267;DHT22;38223;50.940;4.034;2023-03-01T05:52:41;1.80;99.90
52267;DHT22;38223;50.940;4.034;2023-03-01T05:55:12;1.80;99.90
52267;DHT22;38223;50.940;4.034;2023-03-01T05:57:42;1.60;99.90
52267;DHT22;38223;50.940;4.034;2023-03-01T06:00:12;1.60;99.90
52267;DHT22;38223;50.940;4.034;2023-03-01T06:02:46;1.60;99.90
52267;DHT22;38223;50.940;4.034;2023-03-01T06:05:19;1.70;99.90
52267;DHT22;38223;50.940;4.034;2023-03-01T06:08:08;1.70;99.90
52267;DHT22;38223;50.940;4.034;2023-03-01T06:10:37;1.70;99.90
52267;DHT22;38223;50.940;4.034;2023-03-01T06:13:05;1.80;99.90
52267;DHT22;38223;50.940;4.034;2023-03-01T06:15:32;1.90;99.90
52267;DHT22;38223;50.940;4.034;2023-03-01T06:18:05;1.80;99.90
52267;DHT22;38223;50.940;4.034;2023-03-01T06:20:39;1.80;99.90
52267;DHT22;38223;50.940;4.034;2023-03-01T06:23:10;1.90;99.90
52267;DHT22;38223;50.940;4.034;2023-03-01T06:25:42;1.90;99.90
52267;DHT22;38223;50.940;4.034;2023-03-01T06:28:12;1.90;99.90
52267;DHT22;38223;50.940;4.034;2023-03-01T06:30:49;1.90;99.90
52267;DHT22;38223;50.940;4.034;2023-03-01T06:33:21;1.80;99.90
52267;DHT22;38223;50.940;4.034;2023-03-01T06:35:51;1.70;99.90
52267;DHT22;38223;50.940;4.034;2023-03-01T06:38:20;1.80;99.90
52267;DHT22;38223;50.940;4.034;2023-03-01T06:40:52;1.80;99.90
52267;DHT22;38223;50.940;4.034;2023-03-01T06:43:23;1.80;99.90
52267;DHT22;38223;50.940;4.034;2023-03-01T06:45:54;1.90;99.90
52267;DHT22;38223;50.940;4.034;2023-03-01T06:48:26;1.90;99.90
52267;DHT22;38223;50.940;4.034;2023-03-01T06:50:58;1.90;99.90
52267;DHT22;38223;50.940;4.034;2023-03-01T06:53:36;2.00;99.90
52267;DHT22;38223;50.940;4.034;2023-03-01T06:56:06;2.00;99.90
52267;DHT22;38223;50.940;4.034;2023-03-01T06:58:35;2.00;99.90
52267;DHT22;38223;50.940;4.034;2023-03-01T07:01:08;2.10;99.90
52267;DHT22;38223;50.940;4.034;2023-03-01T07:06:28;2.00;99.90
52267;DHT22;38223;50.940;4.034;2023-03-01T07:08:57;1.90;99.90
52267;DHT22;38223;50.940;4.034;2023-03-01T07:11:27;2.00;99.90
52267;DHT22;38223;50.940;4.034;2023-03-01T07:14:00;2.00;99.90
52267;DHT22;38223;50.940;4.034;2023-03-01T07:16:27;1.90;99.90
52267;DHT22;38223;50.940;4.034;2023-03-01T07:18:56;2.00;99.90
52267;DHT22;38223;50.940;4.034;2023-03-01T07:21:27;2.10;99.90
52267;DHT22;38223;50.940;4.034;2023-03-01T07:23:57;2.10;99.90
52267;DHT22;38223;50.940;4.034;2023-03-01T07:26:30;2.20;99.90
52267;DHT22;38223;50.940;4.034;2023-03-01T07:31:49;2.20;99.90
52267;DHT22;38223;50.940;4.034;2023-03-01T07:34:18;2.20;99.90
52267;DHT22;38223;50.940;4.034;2023-03-01T07:36:52;2.20;99.90
52267;DHT22;38223;50.940;4.034;2023-03-01T07:39:24;2.20;99.90
52267;DHT22;38223;50.940;4.034;2023-03-01T07:41:53;2.20;99.90
52267;DHT22;38223;50.940;4.034;2023-03-01T07:44:25;2.10;99.90
52267;DHT22;38223;50.940;4.034;2023-03-01T07:46:56;2.10;99.90
52267;DHT22;38223;50.940;4.034;2023-03-01T07:49:25;2.20;99.90
52267;DHT22;38223;50.940;4.034;2023-03-01T07:51:57;2.20;99.90
52267;DHT22;38223;50.940;4.034;2023-03-01T07:54:24;2.10;99.90
52267;DHT22;38223;50.940;4.034;2023-03-01T07:56:52;2.10;99.90
52267;DHT22;38223;50.940;4.034;2023-03-01T07:59:21;2.00;99.90
52267;DHT22;38223;50.940;4.034;2023-03-01T08:01:51;2.00;99.90
52267;DHT22;38223;50.940;4.034;2023-03-01T08:04:19;2.10;99.90
52267;DHT22;38223;50.940;4.034;2023-03-01T08:06:52;2.10;99.90
52267;DHT22;38223;50.940;4.034;2023-03-01T08:09:22;2.10;99.90
52267;DHT22;38223;50.940;4.034;2023-03-01T08:11:49;2.10;99.90
52267;DHT22;38223;50.940;4.034;2023-03-01T08:14:20;2.00;99.90
52267;DHT22;38223;50.940;4.034;2023-03-01T08:16:50;1.90;99.90
52267;DHT22;38223;50.940;4.034;2023-03-01T08:19:23;2.00;99.90
52267;DHT22;38223;50.940;4.034;2023-03-01T08:21:50;2.00;99.90
52267;DHT22;38223;50.940;4.034;2023-03-01T08:24:20;1.80;99.90
52267;DHT22;38223;50.940;4.034;2023-03-01T08:26:49;1.80;99.90
52267;DHT22;38223;50.940;4.034;2023-03-01T08:29:18;1.90;99.90
52267;DHT22;38223;50.940;4.034;2023-03-01T08:31:46;2.00;99.90
52267;DHT22;38223;50.940;4.034;2023-03-01T08:34:18;2.10;99.90
52267;DHT22;38223;50.940;4.034;2023-03-01T08:36:53;2.20;99.90
52267;DHT22;38223;50.940;4.034;2023-03-01T08:39:22;2.10;99.90
52267;DHT22;38223;50.940;4.034;2023-03-01T08:41:50;2.00;99.90
52267;DHT22;38223;50.940;4.034;2023-03-01T08:44:24;2.00;99.90
52267;DHT22;38223;50.940;4.034;2023-03-01T08:46:57;1.90;99.90
52267;DHT22;38223;50.940;4.034;2023-03-01T08:49:27;2.00;99.90
52267;DHT22;38223;50.940;4.034;2023-03-01T08:51:56;2.00;99.90
52267;DHT22;38223;50.940;4.034;2023-03-01T08:54:25;2.00;99.90
52267;DHT22;38223;50.940;4.034;2023-03-01T08:56:55;2.10;99.90
52267;DHT22;38223;50.940;4.034;2023-03-01T08:59:29;2.30;99.90
52267;DHT22;38223;50.940;4.034;2023-03-01T09:01:59;2.20;99.90
52267;DHT22;38223;50.940;4.034;2023-03-01T09:04:28;2.20;99.90
52267;DHT22;38223;50.940;4.034;2023-03-01T09:07:04;2.30;99.90
52267;DHT22;38223;50.940;4.034;2023-03-01T09:09:31;2.40;99.90
52267;DHT22;38223;50.940;4.034;2023-03-01T09:12:03;2.60;99.90
52267;DHT22;38223;50.940;4.034;2023-03-01T09:14:35;2.70;99.90
52267;DHT22;38223;50.940;4.034;2023-03-01T09:17:08;2.80;99.90
52267;DHT22;38223;50.940;4.034;2023-03-01T09:22:26;3.10;99.90
52267;DHT22;38223;50.940;4.034;2023-03-01T09:24:54;3.10;99.90
52267;DHT22;38223;50.940;4.034;2023-03-01T09:27:30;3.00;99.90
52267;DHT22;38223;50.940;4.034;2023-03-01T09:29:58;3.10;99.90
52267;DHT22;38223;50.940;4.034;2023-03-01T09:32:31;3.10;99.90
52267;DHT22;38223;50.940;4.034;2023-03-01T09:35:04;3.20;99.90
52267;DHT22;38223;50.940;4.034;2023-03-01T09:37:36;3.10;99.90
52267;DHT22;38223;50.940;4.034;2023-03-01T09:40:11;3.20;99.90
52267;DHT22;38223;50.940;4.034;2023-03-01T09:42:47;3.10;99.90
52267;DHT22;38223;50.940;4.034;2023-03-01T09:45:27;3.20;99.90
52267;DHT22;38223;50.940;4.034;2023-03-01T09:48:02;3.20;99.90
52267;DHT22;38223;50.940;4.034;2023-03-01T09:50:34;3.30;99.90
52267;DHT22;38223;50.940;4.034;2023-03-01T09:53:18;3.40;99.90
52267;DHT22;38223;50.940;4.034;2023-03-01T09:55:54;3.40;99.90
52267;DHT22;38223;50.940;4.034;2023-03-01T10:01:44;3.50;99.90
52267;DHT22;38223;50.940;4.034;2023-03-01T10:03:46;3.60;99.90
52267;DHT22;38223;50.940;4.034;2023-03-01T10:06:22;3.60;99.90
52267;DHT22;38223;50.940;4.034;2023-03-01T10:09:02;3.80;99.90
52267;DHT22;38223;50.940;4.034;2023-03-01T10:11:43;3.70;99.90
52267;DHT22;38223;50.940;4.034;2023-03-01T10:17:27;3.70;99.90
52267;DHT22;38223;50.940;4.034;2023-03-01T10:19:54;3.80;99.90
52267;DHT22;38223;50.940;4.034;2023-03-01T10:22:29;3.90;99.90
52267;DHT22;38223;50.940;4.034;2023-03-01T10:24:59;3.90;99.90
52267;DHT22;38223;50.940;4.034;2023-03-01T10:27:34;4.00;99.90
52267;DHT22;38223;50.940;4.034;2023-03-01T10:32:48;4.00;99.90
52267;DHT22;38223;50.940;4.034;2023-03-01T10:35:28;4.00;99.90
52267;DHT22;38223;50.940;4.034;2023-03-01T10:40:56;4.10;99.90
52267;DHT22;38223;50.940;4.034;2023-03-01T10:43:40;4.20;99.90
52267;DHT22;38223;50.940;4.034;2023-03-01T10:45:59;4.20;99.90
52267;DHT22;38223;50.940;4.034;2023-03-01T10:48:31;4.40;99.90
52267;DHT22;38223;50.940;4.034;2023-03-01T10:51:15;4.60;99.90
52267;DHT22;38223;50.940;4.034;2023-03-01T10:53:43;4.50;99.90
52267;DHT22;38223;50.940;4.034;2023-03-01T10:56:14;4.50;99.90
52267;DHT22;38223;50.940;4.034;2023-03-01T10:59:10;4.40;99.90
52267;DHT22;38223;50.940;4.034;2023-03-01T11:01:37;4.30;99.90
52267;DHT22;38223;50.940;4.034;2023-03-01T11:04:13;4.30;99.90
52267;DHT22;38223;50.940;4.034;2023-03-01T11:06:46;4.40;99.90
52267;DHT22;38223;50.940;4.034;2023-03-01T11:09:21;4.50;99.90
52267;DHT22;38223;50.940;4.034;2023-03-01T11:11:58;4.60;99.90
52267;DHT22;38223;50.940;4.034;2023-03-01T11:14:32;4.70;99.90
52267;DHT22;38223;50.940;4.034;2023-03-01T11:17:11;4.60;99.90
52267;DHT22;38223;50.940;4.034;2023-03-01T11:19:34;4.70;99.90
52267;DHT22;38223;50.940;4.034;2023-03-01T11:22:22;4.70;99.90
52267;DHT22;38223;50.940;4.034;2023-03-01T11:24:54;4.80;99.90
52267;DHT22;38223;50.940;4.034;2023-03-01T11:27:29;4.70;99.90
52267;DHT22;38223;50.940;4.034;2023-03-01T11:33:18;4.80;99.90
52267;DHT22;38223;50.940;4.034;2023-03-01T11:35:55;4.90;99.90
52267;DHT22;38223;50.940;4.034;2023-03-01T11:38:26;4.90;99.90
52267;DHT22;38223;50.940;4.034;2023-03-01T11:41:02;4.90;99.90
52267;DHT22;38223;50.940;4.034;2023-03-01T11:43:41;5.00;99.90
52267;DHT22;38223;50.940;4.034;2023-03-01T11:49:14;5.20;99.90
52267;DHT22;38223;50.940;4.034;2023-03-01T12:21:21;5.70;99.90
52267;DHT22;38223;50.940;4.034;2023-03-01T12:27:01;5.80;99.90
52267;DHT22;38223;50.940;4.034;2023-03-01T12:32:09;5.80;99.90
52267;DHT22;38223;50.940;4.034;2023-03-01T12:35:01;5.80;99.90
52267;DHT22;38223;50.940;4.034;2023-03-01T12:38:13;5.90;99.90
52267;DHT22;38223;50.940;4.034;2023-03-01T12:45:32;7.50;99.90
52267;DHT22;38223;50.940;4.034;2023-03-01T12:50:55;8.80;99.90
52267;DHT22;38223;50.940;4.034;2023-03-01T12:53:28;9.10;97.60
52267;DHT22;38223;50.940;4.034;2023-03-01T12:55:59;9.60;97.80
52267;DHT22;38223;50.940;4.034;2023-03-01T12:58:36;10.20;96.60
52267;DHT22;38223;50.940;4.034;2023-03-01T13:01:14;10.00;92.70
52267;DHT22;38223;50.940;4.034;2023-03-01T13:06:44;10.60;90.70
52267;DHT22;38223;50.940;4.034;2023-03-01T13:09:25;10.20;90.00
52267;DHT22;38223;50.940;4.034;2023-03-01T13:11:43;10.20;85.40
52267;DHT22;38223;50.940;4.034;2023-03-01T13:16:53;10.30;86.40
52267;DHT22;38223;50.940;4.034;2023-03-01T13:19:21;10.50;83.60
52267;DHT22;38223;50.940;4.034;2023-03-01T13:21:51;10.80;85.00
52267;DHT22;38223;50.940;4.034;2023-03-01T13:24:39;10.60;82.90
52267;DHT22;38223;50.940;4.034;2023-03-01T13:27:10;10.60;82.10
52267;DHT22;38223;50.940;4.034;2023-03-01T13:29:44;10.20;81.20
52267;DHT22;38223;50.940;4.034;2023-03-01T13:32:30;9.70;84.30
52267;DHT22;38223;50.940;4.034;2023-03-01T13:35:49;9.90;82.10
52267;DHT22;38223;50.940;4.034;2023-03-01T13:37:36;9.60;82.70
52267;DHT22;38223;50.940;4.034;2023-03-01T13:42:52;10.90;78.70
52267;DHT22;38223;50.940;4.034;2023-03-01T13:45:22;11.10;78.60
52267;DHT22;38223;50.940;4.034;2023-03-01T13:48:01;11.10;77.60
52267;DHT22;38223;50.940;4.034;2023-03-01T13:50:30;10.70;75.10
52267;DHT22;38223;50.940;4.034;2023-03-01T13:52:59;10.50;79.00
52267;DHT22;38223;50.940;4.034;2023-03-01T13:58:33;10.90;76.60
52267;DHT22;38223;50.940;4.034;2023-03-01T14:01:05;11.00;77.10
52267;DHT22;38223;50.940;4.034;2023-03-01T14:03:40;10.90;78.10
52267;DHT22;38223;50.940;4.034;2023-03-01T14:06:09;10.90;75.20
52267;DHT22;38223;50.940;4.034;2023-03-01T14:08:36;11.50;74.60
52267;DHT22;38223;50.940;4.034;2023-03-01T14:19:35;10.10;76.60
52267;DHT22;38223;50.940;4.034;2023-03-01T14:22:27;10.20;79.20
52267;DHT22;38223;50.940;4.034;2023-03-01T14:25:06;10.80;78.10
52267;DHT22;38223;50.940;4.034;2023-03-01T14:27:37;11.00;76.00
52267;DHT22;38223;50.940;4.034;2023-03-01T14:30:19;10.20;76.30
52267;DHT22;38223;50.940;4.034;2023-03-01T14:32:58;10.30;77.40
52267;DHT22;38223;50.940;4.034;2023-03-01T14:35:33;10.20;78.00
52267;DHT22;38223;50.940;4.034;2023-03-01T14:37:57;10.10;79.10
52267;DHT22;38223;50.940;4.034;2023-03-01T14:40:31;10.10;79.10
52267;DHT22;38223;50.940;4.034;2023-03-01T14:43:01;10.10;78.60
52267;DHT22;38223;50.940;4.034;2023-03-01T14:45:29;9.40;77.50
52267;DHT22;38223;50.940;4.034;2023-03-01T14:47:59;8.70;80.50
52267;DHT22;38223;50.940;4.034;2023-03-01T14:50:35;9.00;81.80
52267;DHT22;38223;50.940;4.034;2023-03-01T14:53:05;9.50;81.40
52267;DHT22;38223;50.940;4.034;2023-03-01T14:55:36;9.70;78.70
52267;DHT22;38223;50.940;4.034;2023-03-01T14:58:08;9.80;78.90
52267;DHT22;38223;50.940;4.034;2023-03-01T15:00:35;9.80;78.20
52267;DHT22;38223;50.940;4.034;2023-03-01T15:03:08;9.90;79.10
52267;DHT22;38223;50.940;4.034;2023-03-01T15:05:40;10.10;79.00
52267;DHT22;38223;50.940;4.034;2023-03-01T15:08:16;10.00;77.80
52267;DHT22;38223;50.940;4.034;2023-03-01T15:10:54;9.70;78.40
52267;DHT22;38223;50.940;4.034;2023-03-01T15:13:21;9.30;78.10
52267;DHT22;38223;50.940;4.034;2023-03-01T15:15:53;8.90;79.20
52267;DHT22;38223;50.940;4.034;2023-03-01T15:18:28;8.50;81.00
52267;DHT22;38223;50.940;4.034;2023-03-01T15:21:09;8.90;82.80
52267;DHT22;38223;50.940;4.034;2023-03-01T15:23:39;8.80;81.50
52267;DHT22;38223;50.940;4.034;2023-03-01T15:26:17;8.80;81.50
52267;DHT22;38223;50.940;4.034;2023-03-01T15:28:39;8.90;81.60
52267;DHT22;38223;50.940;4.034;2023-03-01T15:31:21;9.40;81.30
52267;DHT22;38223;50.940;4.034;2023-03-01T15:33:53;10.10;80.00
52267;DHT22;38223;50.940;4.034;2023-03-01T15:36:43;10.40;77.80
52267;DHT22;38223;50.940;4.034;2023-03-01T15:39:41;10.70;76.80
52267;DHT22;38223;50.940;4.034;2023-03-01T15:47:54;10.70;74.90
52267;DHT22;38223;50.940;4.034;2023-03-01T15:50:31;11.00;77.00
52267;DHT22;38223;50.940;4.034;2023-03-01T15:52:56;10.90;76.90
52267;DHT22;38223;50.940;4.034;2023-03-01T15:55:27;10.40;76.60
52267;DHT22;38223;50.940;4.034;2023-03-01T15:58:12;10.70;77.90
52267;DHT22;38223;50.940;4.034;2023-03-01T16:00:40;10.70;75.40
52267;DHT22;38223;50.940;4.034;2023-03-01T16:03:14;10.50;78.50
52267;DHT22;38223;50.940;4.034;2023-03-01T16:05:43;10.70;78.10
52267;DHT22;38223;50.940;4.034;2023-03-01T16:08:11;10.80;78.80
52267;DHT22;38223;50.940;4.034;2023-03-01T16:10:39;11.10;80.90
52267;DHT22;38223;50.940;4.034;2023-03-01T16:13:12;11.20;78.90
52267;DHT22;38223;50.940;4.034;2023-03-01T16:15:40;10.70;77.20
52267;DHT22;38223;50.940;4.034;2023-03-01T16:18:10;10.30;76.60
52267;DHT22;38223;50.940;4.034;2023-03-01T16:20:39;10.00;75.20
52267;DHT22;38223;50.940;4.034;2023-03-01T16:23:12;9.90;77.80
52267;DHT22;38223;50.940;4.034;2023-03-01T16:25:44;10.00;77.80
52267;DHT22;38223;50.940;4.034;2023-03-01T16:28:12;9.60;77.10
52267;DHT22;38223;50.940;4.034;2023-03-01T16:30:44;9.30;77.70
52267;DHT22;38223;50.940;4.034;2023-03-01T16:33:09;9.00;79.00
52267;DHT22;38223;50.940;4.034;2023-03-01T16:35:39;9.10;80.00
52267;DHT22;38223;50.940;4.034;2023-03-01T16:38:07;8.70;79.70
52267;DHT22;38223;50.940;4.034;2023-03-01T16:40:35;8.10;81.10
52267;DHT22;38223;50.940;4.034;2023-03-01T16:43:03;7.80;83.30
52267;DHT22;38223;50.940;4.034;2023-03-01T16:45:38;7.50;84.50
52267;DHT22;38223;50.940;4.034;2023-03-01T16:48:07;7.30;86.00
52267;DHT22;38223;50.940;4.034;2023-03-01T16:50:36;7.10;87.50
52267;DHT22;38223;50.940;4.034;2023-03-01T16:53:12;7.00;88.60
52267;DHT22;38223;50.940;4.034;2023-03-01T16:55:41;6.90;89.80
52267;DHT22;38223;50.940;4.034;2023-03-01T16:58:10;6.90;90.00
52267;DHT22;38223;50.940;4.034;2023-03-01T17:00:37;6.90;89.90
52267;DHT22;38223;50.940;4.034;2023-03-01T17:03:05;6.90;90.10
52267;DHT22;38223;50.940;4.034;2023-03-01T17:05:33;7.00;90.00
52267;DHT22;38223;50.940;4.034;2023-03-01T17:08:00;7.10;90.30
52267;DHT22;38223;50.940;4.034;2023-03-01T17:10:31;7.20;89.90
52267;DHT22;38223;50.940;4.034;2023-03-01T17:13:03;7.10;90.00
52267;DHT22;38223;50.940;4.034;2023-03-01T17:15:30;7.00;90.30
52267;DHT22;38223;50.940;4.034;2023-03-01T17:17:58;7.00;90.40
52267;DHT22;38223;50.940;4.034;2023-03-01T17:20:29;6.80;90.70
52267;DHT22;38223;50.940;4.034;2023-03-01T17:23:05;6.80;90.90
52267;DHT22;38223;50.940;4.034;2023-03-01T17:25:34;6.70;91.00
52267;DHT22;38223;50.940;4.034;2023-03-01T17:28:05;6.60;91.20
52267;DHT22;38223;50.940;4.034;2023-03-01T17:30:34;6.60;91.40
52267;DHT22;38223;50.940;4.034;2023-03-01T17:33:02;6.60;91.90
52267;DHT22;38223;50.940;4.034;2023-03-01T17:35:29;6.70;91.60
52267;DHT22;38223;50.940;4.034;2023-03-01T17:37:57;6.60;91.70
52267;DHT22;38223;50.940;4.034;2023-03-01T17:40:24;6.60;92.00
52267;DHT22;38223;50.940;4.034;2023-03-01T17:42:52;6.70;92.00
52267;DHT22;38223;50.940;4.034;2023-03-01T17:45:20;6.60;92.20
52267;DHT22;38223;50.940;4.034;2023-03-01T17:47:50;6.60;92.30
52267;DHT22;38223;50.940;4.034;2023-03-01T17:50:22;6.60;92.40
52267;DHT22;38223;50.940;4.034;2023-03-01T17:52:50;6.60;92.70
52267;DHT22;38223;50.940;4.034;2023-03-01T17:55:18;6.70;92.70
52267;DHT22;38223;50.940;4.034;2023-03-01T17:57:46;6.60;92.70
52267;DHT22;38223;50.940;4.034;2023-03-01T18:00:16;6.60;92.90